sensor_id;sensor_type;location;lat;lon;timestamp;temperature;humidity
11204;DHT22;5659;49.408;11.116;2024-03-06T00:02:25;6.00;99.90
11204;DHT22;5659;49.408;11.116;2024-03-06T00:04:51;6.30;99.90
11204;DHT22;5659;49.408;11.116;2024-03-06T00:07:17;6.00;99.90
11204;DHT22;5659;49.408;11.116;2024-03-06T00:09:42;5.90;99.90
11204;DHT22;5659;49.408;11.116;2024-03-06T00:12:08;6.00;99.90
11204;DHT22;5659;49.408;11.116;2024-03-06T00:14:34;5.90;99.90
11204;DHT22;5659;49.408;11.116;2024-03-06T00:17:01;5.80;99.90
11204;DHT22;5659;49.408;11.116;2024-03-06T00:19:30;5.70;99.90
11204;DHT22;5659;49.408;11.116;2024-03-06T00:21:56;5.80;99.90
11204;DHT22;5659;49.408;11.116;2024-03-06T00:24:21;6.10;99.90
11204;DHT22;5659;49.408;11.116;2024-03-06T00:26:48;5.80;99.90
11204;DHT22;5659;49.408;11.116;2024-03-06T00:29:14;5.70;99.90
11204;DHT22;5659;49.408;11.116;2024-03-06T00:31:46;6.40;99.90
11204;DHT22;5659;49.408;11.116;2024-03-06T00:34:12;5.90;99.90
11204;DHT22;5659;49.408;11.116;2024-03-06T00:36:42;5.70;99.90
11204;DHT22;5659;49.408;11.116;2024-03-06T00:39:09;5.70;99.90
11204;DHT22;5659;49.408;11.116;2024-03-06T00:41:35;5.80;99.90
11204;DHT22;5659;49.408;11.116;2024-03-06T00:44:01;6.50;99.90
11204;DHT22;5659;49.408;11.116;2024-03-06T00:46:27;6.00;99.90
11204;DHT22;5659;49.408;11.116;2024-03-06T00:48:52;5.70;99.90
11204;DHT22;5659;49.408;11.116;2024-03-06T00:51:18;5.80;99.90
11204;DHT22;5659;49.408;11.116;2024-03-06T00:53:44;5.60;99.90
11204;DHT22;5659;49.408;11.116;2024-03-06T00:56:10;5.80;99.90
11204;DHT22;5659;49.408;11.116;2024-03-06T00:58:35;5.70;99.90
11204;DHT22;5659;49.408;11.116;2024-03-06T01:01:02;6.10;99.90
11204;DHT22;5659;49.408;11.116;2024-03-06T01:03:27;5.80;99.90
11204;DHT22;5659;49.408;11.116;2024-03-06T01:05:53;6.50;99.90
11204;DHT22;5659;49.408;11.116;2024-03-06T01:08:19;5.60;99.90
11204;DHT22;5659;49.408;11.116;2024-03-06T01:10:45;5.80;99.90
11204;DHT22;5659;49.408;11.116;2024-03-06T01:13:10;7.10;99.90
11204;DHT22;5659;49.408;11.116;2024-03-06T01:15:37;5.60;99.90
11204;DHT22;5659;49.408;11.116;2024-03-06T01:18:03;5.50;99.90
11204;DHT22;5659;49.408;11.116;2024-03-06T01:20:28;5.80;99.90
11204;DHT22;5659;49.408;11.116;2024-03-06T01:22:54;5.80;99.90
11204;DHT22;5659;49.408;11.116;2024-03-06T01:25:20;6.30;99.90
11204;DHT22;5659;49.408;11.116;2024-03-06T01:27:47;5.80;99.90
11204;DHT22;5659;49.408;11.116;2024-03-06T01:30:13;6.30;99.90
11204;DHT22;5659;49.408;11.116;2024-03-06T01:32:39;5.90;99.90
11204;DHT22;5659;49.408;11.116;2024-03-06T01:35:05;5.60;99.90
11204;DHT22;5659;49.408;11.116;2024-03-06T01:37:32;5.80;99.90
11204;DHT22;5659;49.408;11.116;2024-03-06T01:39:57;5.40;99.90
11204;DHT22;5659;49.408;11.116;2024-03-06T01:42:23;6.50;99.90
11204;DHT22;5659;49.408;11.116;2024-03-06T01:44:49;5.70;99.90
11204;DHT22;5659;49.408;11.116;2024-03-06T01:47:14;5.60;99.90
11204;DHT22;5659;49.408;11.116;2024-03-06T01:49:40;5.60;99.90
11204;DHT22;5659;49.408;11.116;2024-03-06T01:52:09;5.70;99.90
11204;DHT22;5659;49.408;11.116;2024-03-06T01:54:35;5.90;99.90
11204;DHT22;5659;49.408;11.116;2024-03-06T01:57:01;6.00;99.90
11204;DHT22;5659;49.408;11.116;2024-03-06T01:59:28;6.30;99.90
11204;DHT22;5659;49.408;11.116;2024-03-06T02:01:54;5.70;99.90
11204;DHT22;5659;49.408;11.116;2024-03-06T02:04:20;6.70;99.90
11204;DHT22;5659;49.408;11.116;2024-03-06T02:06:46;5.70;99.90
11204;DHT22;5659;49.408;11.116;2024-03-06T02:09:12;5.80;99.90
11204;DHT22;5659;49.408;11.116;2024-03-06T02:11:39;5.70;99.90
11204;DHT22;5659;49.408;11.116;2024-03-06T02:14:05;5.70;99.90
11204;DHT22;5659;49.408;11.116;2024-03-06T02:16:37;5.80;99.90
11204;DHT22;5659;49.408;11.116;2024-03-06T02:19:05;5.80;99.90
11204;DHT22;5659;49.408;11.116;2024-03-06T02:21:31;5.70;99.90
11204;DHT22;5659;49.408;11.116;2024-03-06T02:23:57;6.30;99.90
11204;DHT22;5659;49.408;11.116;2024-03-06T02:26:23;5.90;99.90
11204;DHT22;5659;49.408;11.116;2024-03-06T02:28:50;5.90;99.90
11204;DHT22;5659;49.408;11.116;2024-03-06T02:31:16;5.70;99.90
11204;DHT22;5659;49.408;11.116;2024-03-06T02:33:43;5.80;99.90
11204;DHT22;5659;49.408;11.116;2024-03-06T02:36:18;5.90;99.90
11204;DHT22;5659;49.408;11.116;2024-03-06T02:38:45;5.80;99.90
11204;DHT22;5659;49.408;11.116;2024-03-06T02:41:11;5.70;99.90
11204;DHT22;5659;49.408;11.116;2024-03-06T02:43:39;6.30;99.90
11204;DHT22;5659;49.408;11.116;2024-03-06T02:46:05;6.00;99.90
11204;DHT22;5659;49.408;11.116;2024-03-06T02:48:30;6.00;99.90
11204;DHT22;5659;49.408;11.116;2024-03-06T02:50:57;5.90;99.90
11204;DHT22;5659;49.408;11.116;2024-03-06T02:53:23;6.10;99.90
11204;DHT22;5659;49.408;11.116;2024-03-06T02:55:48;6.00;99.90
11204;DHT22;5659;49.408;11.116;2024-03-06T02:58:15;6.10;99.90
11204;DHT22;5659;49.408;11.116;2024-03-06T03:00:42;5.80;99.90
11204;DHT22;5659;49.408;11.116;2024-03-06T03:03:07;6.00;99.90
11204;DHT22;5659;49.408;11.116;2024-03-06T03:05:33;6.00;99.90
11204;DHT22;5659;49.408;11.116;2024-03-06T03:07:59;6.00;99.90
11204;DHT22;5659;49.408;11.116;2024-03-06T03:10:24;6.00;99.90
11204;DHT22;5659;49.408;11.116;2024-03-06T03:12:50;6.80;99.90
11204;DHT22;5659;49.408;11.116;2024-03-06T03:15:16;6.00;99.90
11204;DHT22;5659;49.408;11.116;2024-03-06T03:17:42;6.00;99.90
11204;DHT22;5659;49.408;11.116;2024-03-06T03:20:08;6.30;99.90
11204;DHT22;5659;49.408;11.116;2024-03-06T03:22:40;6.10;99.90
11204;DHT22;5659;49.408;11.116;2024-03-06T03:25:10;6.00;99.90
11204;DHT22;5659;49.408;11.116;2024-03-06T03:27:44;6.00;99.90
11204;DHT22;5659;49.408;11.116;2024-03-06T03:30:10;5.90;99.90
11204;DHT22;5659;49.408;11.116;2024-03-06T03:32:37;6.00;99.90
11204;DHT22;5659;49.408;11.116;2024-03-06T03:35:04;6.10;99.90
11204;DHT22;5659;49.408;11.116;2024-03-06T03:37:31;6.00;99.90
11204;DHT22;5659;49.408;11.116;2024-03-06T03:39:56;5.90;99.90
11204;DHT22;5659;49.408;11.116;2024-03-06T03:42:22;5.80;99.90
11204;DHT22;5659;49.408;11.116;2024-03-06T03:44:47;5.80;99.90
11204;DHT22;5659;49.408;11.116;2024-03-06T03:47:13;6.10;99.90
11204;DHT22;5659;49.408;11.116;2024-03-06T03:49:39;6.70;99.90
11204;DHT22;5659;49.408;11.116;2024-03-06T03:52:04;6.40;99.90
11204;DHT22;5659;49.408;11.116;2024-03-06T03:54:30;5.90;99.90
11204;DHT22;5659;49.408;11.116;2024-03-06T03:56:55;7.30;99.90
11204;DHT22;5659;49.408;11.116;2024-03-06T03:59:21;6.60;99.90
11204;DHT22;5659;49.408;11.116;2024-03-06T04:01:46;5.90;99.90
11204;DHT22;5659;49.408;11.116;2024-03-06T04:04:12;5.80;99.90
11204;DHT22;5659;49.408;11.116;2024-03-06T04:06:38;5.80;99.90
11204;DHT22;5659;49.408;11.116;2024-03-06T04:09:03;5.80;99.90
11204;DHT22;5659;49.408;11.116;2024-03-06T04:11:30;6.20;99.90
11204;DHT22;5659;49.408;11.116;2024-03-06T04:13:58;5.90;99.90
11204;DHT22;5659;49.408;11.116;2024-03-06T04:16:23;6.00;99.90
11204;DHT22;5659;49.408;11.116;2024-03-06T04:18:49;7.00;99.90
11204;DHT22;5659;49.408;11.116;2024-03-06T04:21:14;5.80;99.90
11204;DHT22;5659;49.408;11.116;2024-03-06T04:23:40;5.90;99.90
11204;DHT22;5659;49.408;11.116;2024-03-06T04:26:06;6.00;99.90
11204;DHT22;5659;49.408;11.116;2024-03-06T04:28:31;5.90;99.90
11204;DHT22;5659;49.408;11.116;2024-03-06T04:30:57;5.80;99.90
11204;DHT22;5659;49.408;11.116;2024-03-06T04:33:23;6.10;99.90
11204;DHT22;5659;49.408;11.116;2024-03-06T04:35:49;5.80;99.90
11204;DHT22;5659;49.408;11.116;2024-03-06T04:38:14;5.90;99.90
11204;DHT22;5659;49.408;11.116;2024-03-06T04:40:40;5.80;99.90
11204;DHT22;5659;49.408;11.116;2024-03-06T04:43:06;5.80;99.90
11204;DHT22;5659;49.408;11.116;2024-03-06T04:45:33;6.30;99.90
11204;DHT22;5659;49.408;11.116;2024-03-06T04:47:58;5.80;99.90
11204;DHT22;5659;49.408;11.116;2024-03-06T04:50:24;5.90;99.90
11204;DHT22;5659;49.408;11.116;2024-03-06T04:52:50;6.20;99.90
11204;DHT22;5659;49.408;11.116;2024-03-06T04:55:15;5.80;99.90
11204;DHT22;5659;49.408;11.116;2024-03-06T04:57:45;6.10;99.90
11204;DHT22;5659;49.408;11.116;2024-03-06T05:00:11;6.10;99.90
11204;DHT22;5659;49.408;11.116;2024-03-06T05:02:37;6.00;99.90
11204;DHT22;5659;49.408;11.116;2024-03-06T05:05:04;6.10;99.90
11204;DHT22;5659;49.408;11.116;2024-03-06T05:07:31;6.10;99.90
11204;DHT22;5659;49.408;11.116;2024-03-06T05:09:57;5.80;99.90
11204;DHT22;5659;49.408;11.116;2024-03-06T05:12:24;5.80;99.90
11204;DHT22;5659;49.408;11.116;2024-03-06T05:14:51;6.30;99.90
11204;DHT22;5659;49.408;11.116;2024-03-06T05:17:16;5.70;99.90
11204;DHT22;5659;49.408;11.116;2024-03-06T05:19:43;5.80;99.90
11204;DHT22;5659;49.408;11.116;2024-03-06T05:22:10;6.00;99.90
11204;DHT22;5659;49.408;11.116;2024-03-06T05:24:37;5.60;99.90
11204;DHT22;5659;49.408;11.116;2024-03-06T05:27:02;5.70;99.90
11204;DHT22;5659;49.408;11.116;2024-03-06T05:29:28;5.90;99.90
11204;DHT22;5659;49.408;11.116;2024-03-06T05:31:53;5.60;99.90
11204;DHT22;5659;49.408;11.116;2024-03-06T05:34:24;5.60;99.90
11204;DHT22;5659;49.408;11.116;2024-03-06T05:36:49;5.80;99.90
11204;DHT22;5659;49.408;11.116;2024-03-06T05:39:15;5.70;99.90
11204;DHT22;5659;49.408;11.116;2024-03-06T05:41:41;5.70;99.90
11204;DHT22;5659;49.408;11.116;2024-03-06T05:44:07;5.50;99.90
11204;DHT22;5659;49.408;11.116;2024-03-06T05:46:33;5.40;99.90
11204;DHT22;5659;49.408;11.116;2024-03-06T05:48:59;5.40;99.90
11204;DHT22;5659;49.408;11.116;2024-03-06T05:51:26;5.70;99.90
11204;DHT22;5659;49.408;11.116;2024-03-06T05:53:51;5.50;99.90
11204;DHT22;5659;49.408;11.116;2024-03-06T05:56:18;5.80;99.90
11204;DHT22;5659;49.408;11.116;2024-03-06T05:58:43;5.40;99.90
11204;DHT22;5659;49.408;11.116;2024-03-06T06:01:12;5.40;99.90
11204;DHT22;5659;49.408;11.116;2024-03-06T06:03:39;5.60;99.90
11204;DHT22;5659;49.408;11.116;2024-03-06T06:06:05;6.40;99.90
11204;DHT22;5659;49.408;11.116;2024-03-06T06:08:30;5.90;99.90
11204;DHT22;5659;49.408;11.116;2024-03-06T06:10:56;5.60;99.90
11204;DHT22;5659;49.408;11.116;2024-03-06T06:13:21;5.80;99.90
11204;DHT22;5659;49.408;11.116;2024-03-06T06:15:47;5.90;99.90
11204;DHT22;5659;49.408;11.116;2024-03-06T06:18:12;6.00;99.90
11204;DHT22;5659;49.408;11.116;2024-03-06T06:20:40;5.70;99.90
11204;DHT22;5659;49.408;11.116;2024-03-06T06:23:06;6.00;99.90
11204;DHT22;5659;49.408;11.116;2024-03-06T06:25:31;6.00;99.90
11204;DHT22;5659;49.408;11.116;2024-03-06T06:27:57;5.90;99.90
11204;DHT22;5659;49.408;11.116;2024-03-06T06:30:22;6.10;99.90
11204;DHT22;5659;49.408;11.116;2024-03-06T06:32:48;6.20;99.90
11204;DHT22;5659;49.408;11.116;2024-03-06T06:35:13;6.40;99.90
11204;DHT22;5659;49.408;11.116;2024-03-06T06:37:40;6.30;99.90
11204;DHT22;5659;49.408;11.116;2024-03-06T06:40:09;6.40;99.90
11204;DHT22;5659;49.408;11.116;2024-03-06T06:42:35;6.70;99.90
11204;DHT22;5659;49.408;11.116;2024-03-06T06:45:04;6.50;99.90
11204;DHT22;5659;49.408;11.116;2024-03-06T06:47:31;6.70;99.90
11204;DHT22;5659;49.408;11.116;2024-03-06T06:49:57;6.70;99.90
11204;DHT22;5659;49.408;11.116;2024-03-06T06:52:22;7.50;99.90
11204;DHT22;5659;49.408;11.116;2024-03-06T06:54:48;7.40;99.90
11204;DHT22;5659;49.408;11.116;2024-03-06T06:57:15;6.90;99.90
11204;DHT22;5659;49.408;11.116;2024-03-06T06:59:40;7.00;99.90
11204;DHT22;5659;49.408;11.116;2024-03-06T07:02:06;7.00;99.90
11204;DHT22;5659;49.408;11.116;2024-03-06T07:04:32;7.60;99.90
11204;DHT22;5659;49.408;11.116;2024-03-06T07:06:57;7.40;99.90
11204;DHT22;5659;49.408;11.116;2024-03-06T07:09:23;7.00;99.90
11204;DHT22;5659;49.408;11.116;2024-03-06T07:11:48;7.40;99.90
11204;DHT22;5659;49.408;11.116;2024-03-06T07:14:15;6.90;99.90
11204;DHT22;5659;49.408;11.116;2024-03-06T07:16:44;7.00;99.90
11204;DHT22;5659;49.408;11.116;2024-03-06T07:19:10;7.00;99.90
11204;DHT22;5659;49.408;11.116;2024-03-06T07:21:36;7.00;99.90
11204;DHT22;5659;49.408;11.116;2024-03-06T07:24:03;7.50;99.90
11204;DHT22;5659;49.408;11.116;2024-03-06T07:26:29;7.20;99.90
11204;DHT22;5659;49.408;11.116;2024-03-06T07:28:55;8.40;99.90
11204;DHT22;5659;49.408;11.116;2024-03-06T07:31:21;7.00;99.90
11204;DHT22;5659;49.408;11.116;2024-03-06T07:33:47;7.60;99.90
11204;DHT22;5659;49.408;11.116;2024-03-06T07:36:12;7.30;99.90
11204;DHT22;5659;49.408;11.116;2024-03-06T07:38:38;7.40;99.90
11204;DHT22;5659;49.408;11.116;2024-03-06T07:41:03;7.20;99.90
11204;DHT22;5659;49.408;11.116;2024-03-06T07:43:29;8.00;99.90
11204;DHT22;5659;49.408;11.116;2024-03-06T07:45:55;8.20;99.90
11204;DHT22;5659;49.408;11.116;2024-03-06T07:48:20;7.10;99.90
11204;DHT22;5659;49.408;11.116;2024-03-06T07:50:46;7.20;99.90
11204;DHT22;5659;49.408;11.116;2024-03-06T07:53:12;7.30;99.90
11204;DHT22;5659;49.408;11.116;2024-03-06T07:55:37;7.30;99.90
11204;DHT22;5659;49.408;11.116;2024-03-06T07:58:04;7.30;99.90
11204;DHT22;5659;49.408;11.116;2024-03-06T08:00:30;7.70;99.90
11204;DHT22;5659;49.408;11.116;2024-03-06T08:02:56;7.30;99.90
11204;DHT22;5659;49.408;11.116;2024-03-06T08:05:22;7.70;99.90
11204;DHT22;5659;49.408;11.116;2024-03-06T08:07:48;7.50;99.90
11204;DHT22;5659;49.408;11.116;2024-03-06T08:10:13;7.70;99.90
11204;DHT22;5659;49.408;11.116;2024-03-06T08:12:43;7.60;99.90
11204;DHT22;5659;49.408;11.116;2024-03-06T08:15:13;7.90;99.90
11204;DHT22;5659;49.408;11.116;2024-03-06T08:17:40;8.00;99.90
11204;DHT22;5659;49.408;11.116;2024-03-06T08:20:10;7.90;99.90
11204;DHT22;5659;49.408;11.116;2024-03-06T08:22:39;8.20;99.90
11204;DHT22;5659;49.408;11.116;2024-03-06T08:25:10;9.80;99.90
11204;DHT22;5659;49.408;11.116;2024-03-06T08:27:37;8.20;99.90
11204;DHT22;5659;49.408;11.116;2024-03-06T08:30:03;9.00;99.90
11204;DHT22;5659;49.408;11.116;2024-03-06T08:32:33;8.30;99.90
11204;DHT22;5659;49.408;11.116;2024-03-06T08:35:04;8.10;99.90
11204;DHT22;5659;49.408;11.116;2024-03-06T08:37:32;8.50;99.90
11204;DHT22;5659;49.408;11.116;2024-03-06T08:39:59;8.90;99.90
11204;DHT22;5659;49.408;11.116;2024-03-06T08:42:25;8.60;99.90
11204;DHT22;5659;49.408;11.116;2024-03-06T08:44:50;8.30;99.90
11204;DHT22;5659;49.408;11.116;2024-03-06T08:47:16;8.90;99.90
11204;DHT22;5659;49.408;11.116;2024-03-06T08:49:41;8.60;99.90
11204;DHT22;5659;49.408;11.116;2024-03-06T08:52:07;8.70;99.90
11204;DHT22;5659;49.408;11.116;2024-03-06T08:54:35;8.60;99.90
11204;DHT22;5659;49.408;11.116;2024-03-06T08:57:01;8.50;99.90
11204;DHT22;5659;49.408;11.116;2024-03-06T08:59:31;8.70;99.90
11204;DHT22;5659;49.408;11.116;2024-03-06T09:01:56;8.60;99.90
11204;DHT22;5659;49.408;11.116;2024-03-06T09:04:23;8.70;99.90
11204;DHT22;5659;49.408;11.116;2024-03-06T09:06:48;8.60;99.90
11204;DHT22;5659;49.408;11.116;2024-03-06T09:09:16;8.60;99.90
11204;DHT22;5659;49.408;11.116;2024-03-06T09:11:43;9.50;99.90
11204;DHT22;5659;49.408;11.116;2024-03-06T09:14:09;8.90;99.90
11204;DHT22;5659;49.408;11.116;2024-03-06T09:16:35;8.60;99.90
11204;DHT22;5659;49.408;11.116;2024-03-06T09:19:01;9.00;99.90
11204;DHT22;5659;49.408;11.116;2024-03-06T09:21:27;8.40;99.90
11204;DHT22;5659;49.408;11.116;2024-03-06T09:23:53;8.30;99.90
11204;DHT22;5659;49.408;11.116;2024-03-06T09:26:19;8.30;99.90
11204;DHT22;5659;49.408;11.116;2024-03-06T09:28:46;8.40;99.90
11204;DHT22;5659;49.408;11.116;2024-03-06T09:31:11;8.40;99.90
11204;DHT22;5659;49.408;11.116;2024-03-06T09:33:39;8.40;99.90
11204;DHT22;5659;49.408;11.116;2024-03-06T09:36:05;9.60;99.90
11204;DHT22;5659;49.408;11.116;2024-03-06T09:38:31;8.70;99.90
11204;DHT22;5659;49.408;11.116;2024-03-06T09:40:56;8.40;99.90
11204;DHT22;5659;49.408;11.116;2024-03-06T09:43:22;8.00;99.90
11204;DHT22;5659;49.408;11.116;2024-03-06T09:45:50;8.30;99.90
11204;DHT22;5659;49.408;11.116;2024-03-06T09:48:18;8.70;99.90
11204;DHT22;5659;49.408;11.116;2024-03-06T09:50:46;8.30;99.90
11204;DHT22;5659;49.408;11.116;2024-03-06T09:53:15;8.90;99.90
11204;DHT22;5659;49.408;11.116;2024-03-06T09:55:42;9.00;99.90
11204;DHT22;5659;49.408;11.116;2024-03-06T09:58:08;9.10;99.90
11204;DHT22;5659;49.408;11.116;2024-03-06T10:00:37;9.40;99.90
11204;DHT22;5659;49.408;11.116;2024-03-06T10:03:03;9.90;99.90
11204;DHT22;5659;49.408;11.116;2024-03-06T10:05:34;10.00;99.90
11204;DHT22;5659;49.408;11.116;2024-03-06T10:08:03;9.90;99.90
11204;DHT22;5659;49.408;11.116;2024-03-06T10:10:30;10.30;99.90
11204;DHT22;5659;49.408;11.116;2024-03-06T10:12:56;10.40;99.90
11204;DHT22;5659;49.408;11.116;2024-03-06T10:15:26;10.50;99.90
11204;DHT22;5659;49.408;11.116;2024-03-06T10:18:10;10.90;99.90
11204;DHT22;5659;49.408;11.116;2024-03-06T10:20:37;11.00;99.90
11204;DHT22;5659;49.408;11.116;2024-03-06T10:23:03;10.60;99.90
11204;DHT22;5659;49.408;11.116;2024-03-06T10:25:29;11.00;99.90
11204;DHT22;5659;49.408;11.116;2024-03-06T10:30:31;11.20;99.90
11204;DHT22;5659;49.408;11.116;2024-03-06T10:32:56;11.00;99.90
11204;DHT22;5659;49.408;11.116;2024-03-06T10:35:22;11.90;99.90
11204;DHT22;5659;49.408;11.116;2024-03-06T10:37:48;11.50;99.90
11204;DHT22;5659;49.408;11.116;2024-03-06T10:40:15;11.60;99.90
11204;DHT22;5659;49.408;11.116;2024-03-06T10:42:42;11.10;99.90
11204;DHT22;5659;49.408;11.116;2024-03-06T10:45:13;11.50;99.90
11204;DHT22;5659;49.408;11.116;2024-03-06T10:47:41;12.50;99.90
11204;DHT22;5659;49.408;11.116;2024-03-06T10:50:11;13.30;99.90
11204;DHT22;5659;49.408;11.116;2024-03-06T10:52:38;13.50;99.90
11204;DHT22;5659;49.408;11.116;2024-03-06T10:55:05;13.80;99.90
11204;DHT22;5659;49.408;11.116;2024-03-06T10:57:32;13.50;99.90
11204;DHT22;5659;49.408;11.116;2024-03-06T10:59:59;12.80;99.90
11204;DHT22;5659;49.408;11.116;2024-03-06T11:02:27;12.70;99.90
11204;DHT22;5659;49.408;11.116;2024-03-06T11:04:53;12.40;99.90
11204;DHT22;5659;49.408;11.116;2024-03-06T11:07:20;11.70;99.90
11204;DHT22;5659;49.408;11.116;2024-03-06T11:09:45;11.80;99.90
11204;DHT22;5659;49.408;11.116;2024-03-06T11:12:36;12.60;99.90
11204;DHT22;5659;49.408;11.116;2024-03-06T11:15:16;11.70;99.90
11204;DHT22;5659;49.408;11.116;2024-03-06T11:17:44;11.40;99.90
11204;DHT22;5659;49.408;11.116;2024-03-06T11:20:17;11.30;99.90
11204;DHT22;5659;49.408;11.116;2024-03-06T11:33:41;10.70;99.90
11204;DHT22;5659;49.408;11.116;2024-03-06T11:36:23;10.70;99.90
11204;DHT22;5659;49.408;11.116;2024-03-06T11:39:07;10.70;99.90
11204;DHT22;5659;49.408;11.116;2024-03-06T11:41:47;10.70;99.90
11204;DHT22;5659;49.408;11.116;2024-03-06T11:44:19;10.50;99.90
11204;DHT22;5659;49.408;11.116;2024-03-06T11:49:19;10.40;99.90
11204;DHT22;5659;49.408;11.116;2024-03-06T11:51:58;10.40;99.90
11204;DHT22;5659;49.408;11.116;2024-03-06T11:54:24;10.30;99.90
11204;DHT22;5659;49.408;11.116;2024-03-06T11:56:53;10.30;99.90
11204;DHT22;5659;49.408;11.116;2024-03-06T11:59:26;10.00;99.90
11204;DHT22;5659;49.408;11.116;2024-03-06T12:01:59;10.30;99.90
11204;DHT22;5659;49.408;11.116;2024-03-06T12:04:29;10.30;99.90
11204;DHT22;5659;49.408;11.116;2024-03-06T12:07:00;10.00;99.90
11204;DHT22;5659;49.408;11.116;2024-03-06T12:09:30;11.00;99.90
11204;DHT22;5659;49.408;11.116;2024-03-06T12:11:56;11.00;99.90
11204;DHT22;5659;49.408;11.116;2024-03-06T12:14:25;10.40;99.90
11204;DHT22;5659;49.408;11.116;2024-03-06T12:17:00;10.70;99.90
11204;DHT22;5659;49.408;11.116;2024-03-06T12:19:27;10.80;99.90
11204;DHT22;5659;49.408;11.116;2024-03-06T12:21:58;10.40;99.90
11204;DHT22;5659;49.408;11.116;2024-03-06T12:24:24;11.40;99.90
11204;DHT22;5659;49.408;11.116;2024-03-06T12:27:03;10.70;99.90
11204;DHT22;5659;49.408;11.116;2024-03-06T12:29:30;11.10;99.90
11204;DHT22;5659;49.408;11.116;2024-03-06T12:31:57;11.30;99.90
11204;DHT22;5659;49.408;11.116;2024-03-06T12:34:23;11.10;99.90
11204;DHT22;5659;49.408;11.116;2024-03-06T12:36:49;11.70;99.90
11204;DHT22;5659;49.408;11.116;2024-03-06T12:39:18;11.50;99.90
11204;DHT22;5659;49.408;11.116;2024-03-06T12:41:47;11.40;99.90
11204;DHT22;5659;49.408;11.116;2024-03-06T12:44:13;11.70;99.90
11204;DHT22;5659;49.408;11.116;2024-03-06T12:46:38;11.30;99.90
11204;DHT22;5659;49.408;11.116;2024-03-06T12:49:04;11.70;99.90
11204;DHT22;5659;49.408;11.116;2024-03-06T12:51:30;11.90;99.90
11204;DHT22;5659;49.408;11.116;2024-03-06T12:53:55;11.90;99.90
11204;DHT22;5659;49.408;11.116;2024-03-06T12:56:21;11.60;99.90
11204;DHT22;5659;49.408;11.116;2024-03-06T12:58:46;11.30;99.90
11204;DHT22;5659;49.408;11.116;2024-03-06T13:01:12;11.50;99.90
11204;DHT22;5659;49.408;11.116;2024-03-06T13:03:38;12.50;99.90
11204;DHT22;5659;49.408;11.116;2024-03-06T13:06:04;11.90;99.90
11204;DHT22;5659;49.408;11.116;2024-03-06T13:08:30;11.70;99.90
11204;DHT22;5659;49.408;11.116;2024-03-06T13:10:56;11.90;99.90
11204;DHT22;5659;49.408;11.116;2024-03-06T13:13:22;12.20;99.90
11204;DHT22;5659;49.408;11.116;2024-03-06T13:15:54;12.60;99.90
11204;DHT22;5659;49.408;11.116;2024-03-06T13:18:19;12.70;99.90
11204;DHT22;5659;49.408;11.116;2024-03-06T13:20:45;12.40;99.90
11204;DHT22;5659;49.408;11.116;2024-03-06T13:23:11;13.00;99.90
11204;DHT22;5659;49.408;11.116;2024-03-06T13:25:37;12.40;99.90
11204;DHT22;5659;49.408;11.116;2024-03-06T13:28:03;12.60;99.90
11204;DHT22;5659;49.408;11.116;2024-03-06T13:30:29;12.10;99.90
11204;DHT22;5659;49.408;11.116;2024-03-06T13:32:54;12.30;99.90
11204;DHT22;5659;49.408;11.116;2024-03-06T13:35:20;12.10;99.90
11204;DHT22;5659;49.408;11.116;2024-03-06T13:37:46;12.20;99.90
11204;DHT22;5659;49.408;11.116;2024-03-06T13:40:12;12.20;99.90
11204;DHT22;5659;49.408;11.116;2024-03-06T13:42:39;12.50;99.90
11204;DHT22;5659;49.408;11.116;2024-03-06T13:45:06;12.20;99.90
11204;DHT22;5659;49.408;11.116;2024-03-06T13:47:40;12.10;99.90
11204;DHT22;5659;49.408;11.116;2024-03-06T13:50:11;12.10;99.90
11204;DHT22;5659;49.408;11.116;2024-03-06T13:52:38;12.20;99.90
11204;DHT22;5659;49.408;11.116;2024-03-06T13:55:04;11.80;99.90
11204;DHT22;5659;49.408;11.116;2024-03-06T13:57:34;12.20;99.90
11204;DHT22;5659;49.408;11.116;2024-03-06T14:00:05;12.30;99.90
11204;DHT22;5659;49.408;11.116;2024-03-06T14:02:31;12.20;99.90
11204;DHT22;5659;49.408;11.116;2024-03-06T14:04:57;12.10;99.90
11204;DHT22;5659;49.408;11.116;2024-03-06T14:07:23;12.30;99.90
11204;DHT22;5659;49.408;11.116;2024-03-06T14:09:52;12.70;99.90
11204;DHT22;5659;49.408;11.116;2024-03-06T14:12:18;12.60;99.90
11204;DHT22;5659;49.408;11.116;2024-03-06T14:14:43;12.30;99.90
11204;DHT22;5659;49.408;11.116;2024-03-06T14:17:11;11.90;99.90
11204;DHT22;5659;49.408;11.116;2024-03-06T14:19:36;12.50;99.90
11204;DHT22;5659;49.408;11.116;2024-03-06T14:22:02;11.90;99.90
11204;DHT22;5659;49.408;11.116;2024-03-06T14:24:27;11.80;99.90
11204;DHT22;5659;49.408;11.116;2024-03-06T14:26:53;11.30;99.90
11204;DHT22;5659;49.408;11.116;2024-03-06T14:29:18;11.20;99.90
11204;DHT22;5659;49.408;11.116;2024-03-06T14:31:44;11.20;99.90
11204;DHT22;5659;49.408;11.116;2024-03-06T14:34:10;11.20;99.90
11204;DHT22;5659;49.408;11.116;2024-03-06T14:36:36;11.80;99.90
11204;DHT22;5659;49.408;11.116;2024-03-06T14:39:01;10.50;99.90
11204;DHT22;5659;49.408;11.116;2024-03-06T14:41:27;10.40;99.90
11204;DHT22;5659;49.408;11.116;2024-03-06T14:43:52;10.90;99.90
11204;DHT22;5659;49.408;11.116;2024-03-06T14:46:19;10.40;99.90
11204;DHT22;5659;49.408;11.116;2024-03-06T14:48:45;10.90;99.90
11204;DHT22;5659;49.408;11.116;2024-03-06T14:51:10;10.60;99.90
11204;DHT22;5659;49.408;11.116;2024-03-06T14:53:36;10.80;99.90
11204;DHT22;5659;49.408;11.116;2024-03-06T14:56:02;11.20;99.90
11204;DHT22;5659;49.408;11.116;2024-03-06T14:58:28;10.70;99.90
11204;DHT22;5659;49.408;11.116;2024-03-06T15:00:54;11.30;99.90
11204;DHT22;5659;49.408;11.116;2024-03-06T15:03:19;11.40;99.90
11204;DHT22;5659;49.408;11.116;2024-03-06T15:05:45;10.70;99.90
11204;DHT22;5659;49.408;11.116;2024-03-06T15:08:11;10.70;99.90
11204;DHT22;5659;49.408;11.116;2024-03-06T15:10:37;10.70;99.90
11204;DHT22;5659;49.408;11.116;2024-03-06T15:13:03;10.40;99.90
11204;DHT22;5659;49.408;11.116;2024-03-06T15:15:29;10.80;99.90
11204;DHT22;5659;49.408;11.116;2024-03-06T15:17:54;10.40;99.90
11204;DHT22;5659;49.408;11.116;2024-03-06T15:20:20;10.70;99.90
11204;DHT22;5659;49.408;11.116;2024-03-06T15:22:46;10.70;99.90
11204;DHT22;5659;49.408;11.116;2024-03-06T15:25:13;10.70;99.90
11204;DHT22;5659;49.408;11.116;2024-03-06T15:27:39;10.30;99.90
11204;DHT22;5659;49.408;11.116;2024-03-06T15:30:06;11.40;99.90
11204;DHT22;5659;49.408;11.116;2024-03-06T15:32:33;10.60;99.90
11204;DHT22;5659;49.408;11.116;2024-03-06T15:34:59;11.40;99.90
11204;DHT22;5659;49.408;11.116;2024-03-06T15:37:25;10.20;99.90
11204;DHT22;5659;49.408;11.116;2024-03-06T15:39:51;10.40;99.90
11204;DHT22;5659;49.408;11.116;2024-03-06T15:42:17;10.60;99.90
11204;DHT22;5659;49.408;11.116;2024-03-06T15:44:43;11.10;99.90
11204;DHT22;5659;49.408;11.116;2024-03-06T15:47:08;10.00;99.90
11204;DHT22;5659;49.408;11.116;2024-03-06T15:49:34;10.40;99.90
11204;DHT22;5659;49.408;11.116;2024-03-06T15:51:59;10.60;99.90
11204;DHT22;5659;49.408;11.116;2024-03-06T15:54:26;10.60;99.90